Time;durP1;ratioP1;P1;durP2;ratioP2;P2;SDS_P1;SDS_P2;PMS_P1;PMS_P2;Temp;Humidity;BMP_temperature;BMP_pressure;BME280_temperature;BME280_humidity;BME280_pressure;Samples;Min_cycle;Max_cycle;Signal;HPM_P1;HPM_P2
2023/01/28 00:01:42;;;;;;;;;;;;;;;;;;5060693;28;19917;-51
2023/01/28 00:04:08;;;;;;;;;;;;;;;;;;5064651;28;19942;-51
2023/01/28 00:06:34;;;;;;;;;;;;;;;;;;5052561;28;19991;-54
2023/01/28 00:09:00;;;;;;;;;;;;;;;;;;5052639;28;20383;-51
2023/01/28 00:11:26;;;;;;;;;;;;;;;;;;5051287;28;19913;-53
2023/01/28 00:13:52;;;;;;;;;;;;;;;;;;5053963;28;19913;-50
2023/01/28 00:16:18;;;;;;;;;;;;;;;;;;5059623;28;19966;-52
2023/01/28 00:18:44;;;;;;;;;;;;;;;;;;5072214;28;19912;-52
2023/01/28 00:21:10;;;;;;;;;;;;;;;;;;5054613;28;19921;-54
2023/01/28 00:23:36;;;;;;;;;;;;;;;;;;5058078;28;20445;-52
2023/01/28 00:26:02;;;;;;;;;;;;;;;;;;5071563;28;19917;-54
2023/01/28 00:28:28;;;;;;;;;;;;;;;;;;5070718;28;19912;-50
2023/01/28 00:30:54;;;;;;;;;;;;;;;;;;5072261;28;19966;-50
2023/01/28 00:33:20;;;;;;;;;;;;;;;;;;5067317;28;19920;-50
2023/01/28 00:35:46;;;;;;;;;;;;;;;;;;5065735;28;19912;-52
2023/01/28 00:38:12;;;;;;;;;;;;;;;;;;5071798;28;19916;-50
2023/01/28 00:40:38;;;;;;;;;;;;;;;;;;5065807;28;20293;-53
2023/01/28 00:43:04;;;;;;;;;;;;;;;;;;5055472;28;19960;-50
2023/01/28 00:45:30;;;;;;;;;;;;;;;;;;5053180;28;19913;-51
2023/01/28 00:47:56;;;;;;;;;;;;;;;;;;5051988;28;19909;-53
2023/01/28 00:50:22;;;;;;;;;;;;;;;;;;5062961;28;20315;-51
2023/01/28 00:52:48;;;;;;;;;;;;;;;;;;5071820;28;19909;-50
2023/01/28 00:55:14;;;;;;;;;;;;;;;;;;5052085;28;20346;-52
2023/01/28 00:57:40;;;;;;;;;;;;;;;;;;5052074;28;20012;-50
2023/01/28 01:00:06;;;;;;;;;;;;;;;;;;5054321;28;20015;-51
2023/01/28 01:02:31;;;;;;;;;;;;;;;;;;5072171;28;20331;-53
2023/01/28 01:04:57;;;;;;;;;;;;;;;;;;5054021;28;19915;-51
2023/01/28 01:07:31;;;;;;;;;;;;;;;;;;5053434;28;19920;-51
2023/01/28 01:09:57;;;;;;;;;;;;;;;;;;5056364;28;19916;-54
2023/01/28 01:12:23;;;;;;;;;;;;;;;;;;5070571;28;19913;-52
2023/01/28 01:14:49;;;;;;;;;;;;;;;;;;5056395;28;19962;-52
2023/01/28 01:17:15;;;;;;;;;;;;;;;;;;5052337;28;19919;-52
2023/01/28 01:19:41;;;;;;;;;;;;;;;;;;5051606;28;19909;-52
2023/01/28 01:22:07;;;;;;;;;;;;;;;;;;5051659;28;19958;-52
2023/01/28 01:24:32;;;;;;;;;;;;;;;;;;5063039;28;19948;-53
2023/01/28 01:26:58;;;;;;;;;;;;;;;;;;5072530;28;20458;-54
2023/01/28 01:29:24;;;;;;;;;;;;;;;;;;5072308;28;20019;-50
2023/01/28 01:31:50;;;;;;;;;;;;;;;;;;5073855;28;20090;-53
2023/01/28 01:34:16;;;;;;;;;;;;;;;;;;5065032;28;20003;-53
2023/01/28 01:36:45;;;;;;;;;;;;;;;;;;5055223;28;19921;-51
2023/01/28 01:39:11;;;;;;;;;;;;;;;;;;5055531;28;20319;-53
2023/01/28 01:41:37;;;;;;;;;;;;;;;;;;5055581;28;19913;-50
2023/01/28 01:44:03;;;;;;;;;;;;;;;;;;5062981;28;19955;-52
2023/01/28 01:46:29;;;;;;;;;;;;;;;;;;5071189;28;19919;-53
2023/01/28 01:48:55;;;;;;;;;;;;;;;;;;5056283;28;19940;-54
2023/01/28 01:51:21;;;;;;;;;;;;;;;;;;5057230;28;20266;-50
2023/01/28 01:53:46;;;;;;;;;;;;;;;;;;5064206;28;19916;-50
2023/01/28 01:56:12;;;;;;;;;;;;;;;;;;5070580;28;19916;-50
2023/01/28 01:58:38;;;;;;;;;;;;;;;;;;5055156;28;19913;-52
2023/01/28 02:01:04;;;;;;;;;;;;;;;;;;5055252;28;19966;-50
2023/01/28 02:03:30;;;;;;;;;;;;;;;;;;5055080;28;19931;-50
2023/01/28 02:05:56;;;;;;;;;;;;;;;;;;5054811;28;20349;-51
2023/01/28 02:08:22;;;;;;;;;;;;;;;;;;5054869;28;20020;-52
2023/01/28 02:10:48;;;;;;;;;;;;;;;;;;5053708;28;19967;-53
2023/01/28 02:13:14;;;;;;;;;;;;;;;;;;5055019;28;19909;-50
2023/01/28 02:15:40;;;;;;;;;;;;;;;;;;5054799;28;19915;-51
2023/01/28 02:18:06;;;;;;;;;;;;;;;;;;5054790;28;20011;-53
2023/01/28 02:20:32;;;;;;;;;;;;;;;;;;5054707;28;20011;-52
2023/01/28 02:22:57;;;;;;;;;;;;;;;;;;5055819;28;19934;-55
2023/01/28 02:25:23;;;;;;;;;;;;;;;;;;5061750;28;19919;-50
2023/01/28 02:27:49;;;;;;;;;;;;;;;;;;5074247;28;19913;-52
2023/01/28 02:30:15;;;;;;;;;;;;;;;;;;5069947;28;20491;-52
2023/01/28 02:32:41;;;;;;;;;;;;;;;;;;5072671;28;19919;-51
2023/01/28 02:35:07;;;;;;;;;;;;;;;;;;5061682;28;19920;-52
2023/01/28 02:37:33;;;;;;;;;;;;;;;;;;5072583;28;19939;-52
2023/01/28 02:39:59;;;;;;;;;;;;;;;;;;5072696;28;19912;-51
2023/01/28 02:42:25;;;;;;;;;;;;;;;;;;5054564;28;19940;-50
2023/01/28 02:44:51;;;;;;;;;;;;;;;;;;5056930;28;20455;-53
2023/01/28 02:50:01;;;;;;;;;;;;;;;;;;5071385;28;19924;-52
2023/01/28 02:55:12;;;;;;;;;;;;;;;;;;5045443;28;19920;-53
2023/01/28 02:57:38;;;;;;;;;;;;;;;;;;5054045;28;20285;-53
2023/01/28 03:00:04;;;;;;;;;;;;;;;;;;5053953;28;20399;-50
2023/01/28 03:02:30;;;;;;;;;;;;;;;;;;5054071;28;19915;-51
2023/01/28 03:04:55;;;;;;;;;;;;;;;;;;5053830;28;20046;-54
2023/01/28 03:07:21;;;;;;;;;;;;;;;;;;5053896;28;20060;-51
2023/01/28 03:09:50;;;;;;;;;;;;;;;;;;5053879;28;20006;-51
2023/01/28 03:36:58;;;;;;;;;;;;;;;;;;5071325;28;19919;-53
2023/01/28 03:39:24;;;;;;;;;;;;;;;;;;5061156;28;20004;-50
2023/01/28 03:41:50;;;;;;;;;;;;;;;;;;5068319;28;20008;-52
2023/01/28 03:47:00;;;;;;;;;;;;;;;;;;5072619;28;19920;-53
2023/01/28 03:49:26;;;;;;;;;;;;;;;;;;5072622;28;19916;-52
2023/01/28 03:51:52;;;;;;;;;;;;;;;;;;5067631;28;19912;-53
2023/01/28 03:54:18;;;;;;;;;;;;;;;;;;5061746;28;19958;-52
2023/01/28 03:56:44;;;;;;;;;;;;;;;;;;5056009;28;19913;-52
2023/01/28 03:59:10;;;;;;;;;;;;;;;;;;5053134;28;19909;-52
2023/01/28 04:01:36;;;;;;;;;;;;;;;;;;5053676;28;19917;-51
2023/01/28 04:04:02;;;;;;;;;;;;;;;;;;5060814;28;20456;-51
2023/01/28 04:06:28;;;;;;;;;;;;;;;;;;5053717;28;20007;-50
2023/01/28 04:08:57;;;;;;;;;;;;;;;;;;5066682;28;19917;-52
2023/01/28 04:11:24;;;;;;;;;;;;;;;;;;5058260;28;19913;-51
2023/01/28 04:13:50;;;;;;;;;;;;;;;;;;5053053;28;20011;-53
2023/01/28 04:16:16;;;;;;;;;;;;;;;;;;5052459;28;19932;-51
2023/01/28 04:18:42;;;;;;;;;;;;;;;;;;5051667;28;20033;-51
2023/01/28 04:21:08;;;;;;;;;;;;;;;;;;5052522;28;19916;-51
2023/01/28 04:23:34;;;;;;;;;;;;;;;;;;5067680;28;19916;-51
2023/01/28 04:26:00;;;;;;;;;;;;;;;;;;5072404;28;19960;-53
2023/01/28 04:28:26;;;;;;;;;;;;;;;;;;5072085;28;19969;-51
2023/01/28 04:30:52;;;;;;;;;;;;;;;;;;5072446;28;19908;-50
2023/01/28 04:33:18;;;;;;;;;;;;;;;;;;5055683;28;19920;-53
2023/01/28 04:35:44;;;;;;;;;;;;;;;;;;5071265;28;19959;-50
2023/01/28 04:38:10;;;;;;;;;;;;;;;;;;5072231;28;19916;-53
2023/01/28 04:40:35;;;;;;;;;;;;;;;;;;5072013;28;19923;-50
2023/01/28 04:43:01;;;;;;;;;;;;;;;;;;5058106;28;20420;-50
2023/01/28 04:45:28;;;;;;;;;;;;;;;;;;5052149;28;19909;-52
2023/01/28 04:47:54;;;;;;;;;;;;;;;;;;5054849;28;19916;-52
2023/01/28 04:50:20;;;;;;;;;;;;;;;;;;5061127;28;19991;-52
2023/01/28 04:52:45;;;;;;;;;;;;;;;;;;5053126;28;19975;-54
2023/01/28 04:55:11;;;;;;;;;;;;;;;;;;5057974;28;19944;-54
2023/01/28 04:57:37;;;;;;;;;;;;;;;;;;5071949;28;20347;-51
2023/01/28 05:00:04;;;;;;;;;;;;;;;;;;5071662;28;20296;-50
2023/01/28 05:02:30;;;;;;;;;;;;;;;;;;5071166;28;20057;-50
2023/01/28 05:04:56;;;;;;;;;;;;;;;;;;5071753;28;20003;-51
2023/01/28 05:07:22;;;;;;;;;;;;;;;;;;5071979;28;20013;-50
2023/01/28 05:09:47;;;;;;;;;;;;;;;;;;5071877;28;20368;-52
2023/01/28 05:12:13;;;;;;;;;;;;;;;;;;5072019;28;19935;-52
2023/01/28 05:14:39;;;;;;;;;;;;;;;;;;5071814;28;19913;-53
2023/01/28 05:17:05;;;;;;;;;;;;;;;;;;5072023;28;20075;-50
2023/01/28 05:19:31;;;;;;;;;;;;;;;;;;5071853;28;19959;-53
2023/01/28 05:21:57;;;;;;;;;;;;;;;;;;5071938;28;19948;-53
2023/01/28 05:24:23;;;;;;;;;;;;;;;;;;5072004;28;19955;-54
2023/01/28 05:26:49;;;;;;;;;;;;;;;;;;5070699;28;20356;-50
2023/01/28 05:29:15;;;;;;;;;;;;;;;;;;5071809;28;19993;-53
2023/01/28 05:31:41;;;;;;;;;;;;;;;;;;5071863;28;20289;-53
2023/01/28 05:34:07;;;;;;;;;;;;;;;;;;5071657;28;19908;-50
2023/01/28 05:36:33;;;;;;;;;;;;;;;;;;5071823;28;19909;-52
2023/01/28 05:38:59;;;;;;;;;;;;;;;;;;5071633;28;19916;-50
2023/01/28 05:41:25;;;;;;;;;;;;;;;;;;5071757;28;20384;-50
2023/01/28 05:43:51;;;;;;;;;;;;;;;;;;5071666;28;19915;-50
2023/01/28 05:46:16;;;;;;;;;;;;;;;;;;5071599;28;19916;-53
2023/01/28 05:48:42;;;;;;;;;;;;;;;;;;5071426;28;19924;-51
2023/01/28 05:51:08;;;;;;;;;;;;;;;;;;5071544;28;19908;-50
2023/01/28 05:53:34;;;;;;;;;;;;;;;;;;5071697;28;20365;-51
2023/01/28 05:56:00;;;;;;;;;;;;;;;;;;5071437;28;19915;-53
2023/01/28 05:58:29;;;;;;;;;;;;;;;;;;5071521;28;19919;-53
2023/01/28 06:00:55;;;;;;;;;;;;;;;;;;5071560;28;20423;-52
2023/01/28 06:03:21;;;;;;;;;;;;;;;;;;5071379;28;19908;-50
2023/01/28 06:05:47;;;;;;;;;;;;;;;;;;5071485;28;19969;-50
2023/01/28 06:08:13;;;;;;;;;;;;;;;;;;5071457;28;19962;-53
2023/01/28 06:10:39;;;;;;;;;;;;;;;;;;5071557;28;20288;-50
2023/01/28 06:13:05;;;;;;;;;;;;;;;;;;5071478;28;19908;-51
2023/01/28 06:15:31;;;;;;;;;;;;;;;;;;5074394;28;19909;-50
2023/01/28 06:17:57;;;;;;;;;;;;;;;;;;5073434;28;19942;-51
2023/01/28 06:20:22;;;;;;;;;;;;;;;;;;5074952;28;19909;-50
2023/01/28 06:22:48;;;;;;;;;;;;;;;;;;5074840;28;19908;-50
2023/01/28 06:25:14;;;;;;;;;;;;;;;;;;5073420;28;19915;-53
2023/01/28 06:27:40;;;;;;;;;;;;;;;;;;5074699;28;19908;-53
2023/01/28 06:30:06;;;;;;;;;;;;;;;;;;5074671;28;19917;-52
2023/01/28 06:32:32;;;;;;;;;;;;;;;;;;5074559;28;20297;-53
2023/01/28 06:34:58;;;;;;;;;;;;;;;;;;5074550;28;19909;-52
2023/01/28 06:37:25;;;;;;;;;;;;;;;;;;5112929;22;19970;-57
2023/01/28 06:39:51;;;;;;;;;;;;;;;;;;5074527;28;19916;-56
2023/01/28 06:42:16;;;;;;;;;;;;;;;;;;5074382;28;19970;-55
2023/01/28 06:44:42;;;;;;;;;;;;;;;;;;5074315;28;19913;-56
2023/01/28 06:47:09;;;;;;;;;;;;;;;;;;5076251;28;20395;-57
2023/01/28 06:49:35;;;;;;;;;;;;;;;;;;5094614;28;19917;-54
2023/01/28 06:52:01;;;;;;;;;;;;;;;;;;5094578;28;20391;-52
2023/01/28 06:54:27;;;;;;;;;;;;;;;;;;5094368;28;19909;-54
2023/01/28 06:56:53;;;;;;;;;;;;;;;;;;5093205;28;19908;-54
2023/01/28 06:59:19;;;;;;;;;;;;;;;;;;5093082;28;20404;-55
2023/01/28 07:01:45;;;;;;;;;;;;;;;;;;5094240;28;19908;-55
2023/01/28 07:04:11;;;;;;;;;;;;;;;;;;5094380;28;19915;-54
2023/01/28 07:06:37;;;;;;;;;;;;;;;;;;5094086;28;19908;-52
2023/01/28 07:09:02;;;;;;;;;;;;;;;;;;5094129;28;19912;-54
2023/01/28 07:11:28;;;;;;;;;;;;;;;;;;5094141;28;20025;-56
2023/01/28 07:13:54;;;;;;;;;;;;;;;;;;5094094;28;19915;-53
2023/01/28 07:16:20;;;;;;;;;;;;;;;;;;5093847;28;19908;-53
2023/01/28 07:18:46;;;;;;;;;;;;;;;;;;5093963;28;19908;-52
2023/01/28 07:21:12;;;;;;;;;;;;;;;;;;5094250;28;19914;-52
2023/01/28 07:23:38;;;;;;;;;;;;;;;;;;5093986;28;19999;-52
2023/01/28 07:26:04;;;;;;;;;;;;;;;;;;5093380;28;20420;-54
2023/01/28 07:28:30;;;;;;;;;;;;;;;;;;5093657;28;20015;-53
2023/01/28 07:30:56;;;;;;;;;;;;;;;;;;5092421;28;20007;-51
2023/01/28 07:33:22;;;;;;;;;;;;;;;;;;5093811;28;19969;-52
2023/01/28 07:35:48;;;;;;;;;;;;;;;;;;5093851;28;19909;-56
2023/01/28 07:38:14;;;;;;;;;;;;;;;;;;5093429;28;19916;-51
2023/01/28 07:40:41;;;;;;;;;;;;;;;;;;5093630;28;19959;-52
2023/01/28 07:43:07;;;;;;;;;;;;;;;;;;5093527;28;19908;-55
2023/01/28 07:45:33;;;;;;;;;;;;;;;;;;5093236;28;20399;-52
2023/01/28 07:47:59;;;;;;;;;;;;;;;;;;5093423;28;19915;-51
2023/01/28 07:50:25;;;;;;;;;;;;;;;;;;5093464;28;20356;-52
2023/01/28 07:52:51;;;;;;;;;;;;;;;;;;5093408;28;19909;-52
2023/01/28 07:55:17;;;;;;;;;;;;;;;;;;5093598;28;19908;-52
2023/01/28 07:57:42;;;;;;;;;;;;;;;;;;5093169;28;19912;-52
2023/01/28 08:00:08;;;;;;;;;;;;;;;;;;5093049;28;19912;-56
2023/01/28 08:02:34;;;;;;;;;;;;;;;;;;5093077;28;20269;-54
2023/01/28 08:05:00;;;;;;;;;;;;;;;;;;5092963;28;19908;-54
2023/01/28 08:07:26;;;;;;;;;;;;;;;;;;5093085;28;19915;-55
2023/01/28 08:09:52;;;;;;;;;;;;;;;;;;5092988;28;19959;-56
2023/01/28 08:12:18;;;;;;;;;;;;;;;;;;5093000;28;19915;-56
2023/01/28 08:14:44;;;;;;;;;;;;;;;;;;5092695;28;19977;-55
2023/01/28 08:17:10;;;;;;;;;;;;;;;;;;5091585;28;19912;-53
2023/01/28 08:19:36;;;;;;;;;;;;;;;;;;5092733;28;19908;-54
2023/01/28 08:22:02;;;;;;;;;;;;;;;;;;5092873;28;19916;-55
2023/01/28 08:24:28;;;;;;;;;;;;;;;;;;5092491;28;19914;-51
2023/01/28 08:26:54;;;;;;;;;;;;;;;;;;5092699;28;19908;-54
2023/01/28 08:29:20;;;;;;;;;;;;;;;;;;5092564;28;19961;-54
2023/01/28 08:31:46;;;;;;;;;;;;;;;;;;5092548;28;19912;-54
2023/01/28 08:34:12;;;;;;;;;;;;;;;;;;5092743;28;19905;-52
2023/01/28 08:36:38;;;;;;;;;;;;;;;;;;5091784;28;19909;-55
2023/01/28 08:39:04;;;;;;;;;;;;;;;;;;5092007;28;19919;-51
2023/01/28 08:41:30;;;;;;;;;;;;;;;;;;5092495;28;19912;-58
2023/01/28 08:43:57;;;;;;;;;;;;;;;;;;5092463;28;19914;-56
2023/01/28 08:46:23;;;;;;;;;;;;;;;;;;5091067;28;19908;-58
2023/01/28 08:48:49;;;;;;;;;;;;;;;;;;5092432;28;19919;-57
2023/01/28 08:51:14;;;;;;;;;;;;;;;;;;5092458;28;20001;-52
2023/01/28 08:53:40;;;;;;;;;;;;;;;;;;5092396;28;20209;-53
2023/01/28 08:56:06;;;;;;;;;;;;;;;;;;5092174;28;20376;-54
2023/01/28 08:58:32;;;;;;;;;;;;;;;;;;5092119;28;19915;-55
2023/01/28 09:00:58;;;;;;;;;;;;;;;;;;5092400;28;20441;-52
2023/01/28 09:03:24;;;;;;;;;;;;;;;;;;5092310;28;19962;-53
2023/01/28 09:05:50;;;;;;;;;;;;;;;;;;5092142;28;19913;-54
2023/01/28 09:08:16;;;;;;;;;;;;;;;;;;5092120;28;19962;-52
2023/01/28 09:10:42;;;;;;;;;;;;;;;;;;5092234;28;19912;-54
2023/01/28 09:13:08;;;;;;;;;;;;;;;;;;5092119;28;20285;-52
2023/01/28 09:15:34;;;;;;;;;;;;;;;;;;5091995;28;19919;-56
2023/01/28 09:17:59;;;;;;;;;;;;;;;;;;5092018;28;19912;-57
2023/01/28 09:20:25;;;;;;;;;;;;;;;;;;5092101;28;20299;-54
2023/01/28 09:22:51;;;;;;;;;;;;;;;;;;5092228;28;19968;-56
2023/01/28 09:25:17;;;;;;;;;;;;;;;;;;5091785;28;20514;-56
2023/01/28 09:27:43;;;;;;;;;;;;;;;;;;5091819;28;19955;-54
2023/01/28 09:30:09;;;;;;;;;;;;;;;;;;5091983;28;20008;-52
2023/01/28 09:32:35;;;;;;;;;;;;;;;;;;5092174;28;19908;-56
2023/01/28 09:35:01;;;;;;;;;;;;;;;;;;5092038;28;19908;-52
2023/01/28 09:37:27;;;;;;;;;;;;;;;;;;5092069;28;19919;-52
2023/01/28 09:39:53;;;;;;;;;;;;;;;;;;5090782;28;19915;-56
2023/01/28 09:42:19;;;;;;;;;;;;;;;;;;5091882;28;19915;-56
2023/01/28 09:44:45;;;;;;;;;;;;;;;;;;5091738;28;19918;-56
2023/01/28 09:47:11;;;;;;;;;;;;;;;;;;5090509;28;19908;-61
2023/01/28 09:49:37;;;;;;;;;;;;;;;;;;5095465;28;19912;-55
2023/01/28 09:52:03;;;;;;;;;;;;;;;;;;5094344;28;19915;-56
2023/01/28 09:54:29;;;;;;;;;;;;;;;;;;5094028;28;19973;-57
2023/01/28 09:56:55;;;;;;;;;;;;;;;;;;5095112;28;19943;-55
2023/01/28 09:59:21;;;;;;;;;;;;;;;;;;5094236;28;19915;-53
2023/01/28 10:01:47;;;;;;;;;;;;;;;;;;5095697;28;20288;-57
2023/01/28 10:04:15;;;;;;;;;;;;;;;;;;5094146;28;19912;-57
2023/01/28 10:06:41;;;;;;;;;;;;;;;;;;5095407;28;19991;-55
2023/01/28 10:09:07;;;;;;;;;;;;;;;;;;5095287;28;20010;-56
2023/01/28 10:11:32;;;;;;;;;;;;;;;;;;5095684;28;20002;-57
2023/01/28 10:13:58;;;;;;;;;;;;;;;;;;5095322;28;19908;-55
2023/01/28 10:16:24;;;;;;;;;;;;;;;;;;5095163;28;20288;-55
2023/01/28 10:18:50;;;;;;;;;;;;;;;;;;5095160;28;19915;-56
2023/01/28 10:21:16;;;;;;;;;;;;;;;;;;5095127;28;19908;-58
2023/01/28 10:23:42;;;;;;;;;;;;;;;;;;5095113;28;19956;-56
2023/01/28 10:26:08;;;;;;;;;;;;;;;;;;5094921;28;19908;-52
2023/01/28 10:28:34;;;;;;;;;;;;;;;;;;5094944;28;19916;-52
2023/01/28 10:31:00;;;;;;;;;;;;;;;;;;5095004;28;20368;-56
2023/01/28 10:33:26;;;;;;;;;;;;;;;;;;5094970;28;19908;-56
2023/01/28 10:35:52;;;;;;;;;;;;;;;;;;5094695;28;19965;-57
2023/01/28 10:38:18;;;;;;;;;;;;;;;;;;5094531;28;19967;-55
2023/01/28 10:40:46;;;;;;;;;;;;;;;;;;5094730;28;19915;-56
2023/01/28 10:43:12;;;;;;;;;;;;;;;;;;5094761;28;19908;-56
2023/01/28 10:45:38;;;;;;;;;;;;;;;;;;5094565;28;19915;-56
2023/01/28 10:48:04;;;;;;;;;;;;;;;;;;5094541;28;19915;-56
2023/01/28 10:50:30;;;;;;;;;;;;;;;;;;5093214;28;19916;-54
2023/01/28 10:52:56;;;;;;;;;;;;;;;;;;5094422;28;19954;-55
2023/01/28 10:55:22;;;;;;;;;;;;;;;;;;5094293;28;19915;-55
2023/01/28 10:57:48;;;;;;;;;;;;;;;;;;5094412;28;19908;-52
2023/01/28 11:00:14;;;;;;;;;;;;;;;;;;5093496;28;19958;-57
2023/01/28 11:02:40;;;;;;;;;;;;;;;;;;5094385;28;19912;-53
2023/01/28 11:05:07;;;;;;;;;;;;;;;;;;5094163;28;20423;-52
2023/01/28 11:07:33;;;;;;;;;;;;;;;;;;5094148;28;19977;-52
2023/01/28 11:09:59;;;;;;;;;;;;;;;;;;5094113;28;20360;-55
2023/01/28 11:12:25;;;;;;;;;;;;;;;;;;5094234;28;19908;-55
2023/01/28 11:14:51;;;;;;;;;;;;;;;;;;5093959;28;20360;-56
2023/01/28 11:17:17;;;;;;;;;;;;;;;;;;5093988;28;19916;-57
2023/01/28 11:19:43;;;;;;;;;;;;;;;;;;5093778;28;19954;-55
2023/01/28 11:22:09;;;;;;;;;;;;;;;;;;5093862;28;19908;-56
2023/01/28 11:24:35;;;;;;;;;;;;;;;;;;5092481;28;20391;-56
2023/01/28 11:27:01;;;;;;;;;;;;;;;;;;5093807;28;19908;-55
2023/01/28 11:29:27;;;;;;;;;;;;;;;;;;5093788;28;19912;-53
2023/01/28 11:31:53;;;;;;;;;;;;;;;;;;5093841;28;19915;-57
2023/01/28 11:34:19;;;;;;;;;;;;;;;;;;5093532;28;20346;-56
2023/01/28 11:36:45;;;;;;;;;;;;;;;;;;5093562;28;20284;-56
2023/01/28 11:39:11;;;;;;;;;;;;;;;;;;5093462;28;19919;-53
2023/01/28 11:41:36;;;;;;;;;;;;;;;;;;5093911;28;20007;-53
2023/01/28 11:44:02;;;;;;;;;;;;;;;;;;5093827;28;19998;-52
2023/01/28 11:46:28;;;;;;;;;;;;;;;;;;5093371;28;19995;-55
2023/01/28 11:48:54;;;;;;;;;;;;;;;;;;5093292;28;19999;-53
2023/01/28 11:51:20;;;;;;;;;;;;;;;;;;5093267;28;20419;-54
2023/01/28 11:53:46;;;;;;;;;;;;;;;;;;5093283;28;20006;-57
2023/01/28 11:56:12;;;;;;;;;;;;;;;;;;5093562;28;20002;-56
2023/01/28 11:58:38;;;;;;;;;;;;;;;;;;5098492;28;19919;-53
2023/01/28 12:01:04;;;;;;;;;;;;;;;;;;5112973;28;19922;-52
2023/01/28 12:03:30;;;;;;;;;;;;;;;;;;5103222;28;19916;-56
2023/01/28 12:05:56;;;;;;;;;;;;;;;;;;5112680;28;19912;-54
2023/01/28 12:08:23;;;;;;;;;;;;;;;;;;5094330;28;20504;-55
2023/01/28 12:10:49;;;;;;;;;;;;;;;;;;5093588;28;19974;-55
2023/01/28 12:13:15;;;;;;;;;;;;;;;;;;5093865;28;20008;-55
2023/01/28 12:15:41;;;;;;;;;;;;;;;;;;5106575;28;20028;-53
2023/01/28 12:18:07;;;;;;;;;;;;;;;;;;5108895;28;19912;-58
2023/01/28 12:20:33;;;;;;;;;;;;;;;;;;5092681;28;20284;-57
2023/01/28 12:22:59;;;;;;;;;;;;;;;;;;5106087;28;19912;-54
2023/01/28 12:25:25;;;;;;;;;;;;;;;;;;5093782;28;19918;-54
2023/01/28 12:27:53;;;;;;;;;;;;;;;;;;5092842;28;19912;-53
2023/01/28 12:30:19;;;;;;;;;;;;;;;;;;5093503;28;19970;-54
2023/01/28 12:32:44;;;;;;;;;;;;;;;;;;5099537;28;19911;-55
2023/01/28 12:35:10;;;;;;;;;;;;;;;;;;5105259;28;20283;-53
2023/01/28 12:37:36;;;;;;;;;;;;;;;;;;5121051;22;19912;-51
2023/01/28 12:40:02;;;;;;;;;;;;;;;;;;5091985;28;19981;-51
2023/01/28 12:42:31;;;;;;;;;;;;;;;;;;5091589;28;20207;-51
2023/01/28 12:44:57;;;;;;;;;;;;;;;;;;5092289;28;19951;-51
2023/01/28 12:47:23;;;;;;;;;;;;;;;;;;5092107;28;19914;-51
2023/01/28 12:49:49;;;;;;;;;;;;;;;;;;5086596;28;20180;-51
2023/01/28 12:52:15;;;;;;;;;;;;;;;;;;5073894;28;20320;-51
2023/01/28 12:54:42;;;;;;;;;;;;;;;;;;5074083;28;19908;-51
2023/01/28 12:57:09;;;;;;;;;;;;;;;;;;5087416;28;19919;-51
2023/01/28 12:59:35;;;;;;;;;;;;;;;;;;5078167;28;19912;-51
2023/01/28 13:02:01;;;;;;;;;;;;;;;;;;5073828;28;20054;-51
2023/01/28 13:04:27;;;;;;;;;;;;;;;;;;5091798;28;19948;-52
2023/01/28 13:06:53;;;;;;;;;;;;;;;;;;5091975;28;19912;-53
2023/01/28 13:09:19;;;;;;;;;;;;;;;;;;5092042;28;19919;-50
2023/01/28 13:11:45;;;;;;;;;;;;;;;;;;5092137;28;19909;-51
2023/01/28 13:14:10;;;;;;;;;;;;;;;;;;5092206;28;19916;-51
2023/01/28 13:16:36;;;;;;;;;;;;;;;;;;5073249;28;19927;-51
2023/01/28 13:19:02;;;;;;;;;;;;;;;;;;5091904;28;19908;-50
2023/01/28 13:21:28;;;;;;;;;;;;;;;;;;5092260;28;19914;-51
2023/01/28 13:23:54;;;;;;;;;;;;;;;;;;5094687;28;20346;-51
2023/01/28 13:26:20;;;;;;;;;;;;;;;;;;5095523;28;19919;-51
2023/01/28 13:28:46;;;;;;;;;;;;;;;;;;5093611;28;19922;-53
2023/01/28 13:31:16;;;;;;;;;;;;;;;;;;5095609;28;19938;-51
2023/01/28 13:33:42;;;;;;;;;;;;;;;;;;5096003;28;20414;-51
2023/01/28 13:36:08;;;;;;;;;;;;;;;;;;5095565;28;19912;-51
2023/01/28 13:38:34;;;;;;;;;;;;;;;;;;5095573;28;20197;-51
2023/01/28 13:40:59;;;;;;;;;;;;;;;;;;5095659;28;19912;-51
2023/01/28 13:43:26;;;;;;;;;;;;;;;;;;5077400;28;20383;-51
2023/01/28 13:45:52;;;;;;;;;;;;;;;;;;5094043;28;20010;-51
2023/01/28 13:48:17;;;;;;;;;;;;;;;;;;5095197;28;19954;-51
2023/01/28 13:50:43;;;;;;;;;;;;;;;;;;5095618;28;19912;-51
2023/01/28 13:53:09;;;;;;;;;;;;;;;;;;5095435;28;19912;-51
2023/01/28 13:55:35;;;;;;;;;;;;;;;;;;5093833;28;20261;-51
2023/01/28 13:58:01;;;;;;;;;;;;;;;;;;5077192;28;20399;-51
2023/01/28 14:00:27;;;;;;;;;;;;;;;;;;5057769;28;20284;-51
2023/01/28 14:02:53;;;;;;;;;;;;;;;;;;5076828;28;19912;-51
2023/01/28 14:05:19;;;;;;;;;;;;;;;;;;5095240;28;19908;-51
2023/01/28 14:07:45;;;;;;;;;;;;;;;;;;5095298;28;19931;-51
2023/01/28 14:10:11;;;;;;;;;;;;;;;;;;5076892;28;20014;-51
2023/01/28 14:12:37;;;;;;;;;;;;;;;;;;5093059;28;20428;-51
2023/01/28 14:15:03;;;;;;;;;;;;;;;;;;5073382;28;19999;-52
2023/01/28 14:17:29;;;;;;;;;;;;;;;;;;5083019;28;19946;-50
2023/01/28 14:19:55;;;;;;;;;;;;;;;;;;5094031;28;19909;-49
2023/01/28 14:22:21;;;;;;;;;;;;;;;;;;5094841;28;19969;-51
2023/01/28 14:24:47;;;;;;;;;;;18.90;44.30;;;;;;5094747;28;19973;-50
2023/01/28 14:27:12;;;;;;;;;;;18.80;34.50;;;;;;5087213;28;19912;-51
2023/01/28 14:29:56;;;;;;;;;;;18.70;36.20;;;;;;5094308;28;19916;-49
2023/01/28 14:32:28;;;;;;;;;;;18.80;34.70;;;;;;5094607;28;19912;-50
2023/01/28 14:34:54;;;;;;;;;;;19.00;35.70;;;;;;5093072;28;19963;-52
2023/01/28 14:37:20;;;;;;;;;;;;;;;;;;5076308;28;19913;-50
2023/01/28 14:39:55;;;;;;;;;;;18.70;35.20;;;;;;5094380;28;19999;-50
2023/01/28 14:42:22;;;;;;;;;;;18.30;35.20;;;;;;5094545;28;20675;-49
2023/01/28 14:44:53;;;;;;;;;;;18.30;35.40;;;;;;5094217;28;19918;-50
2023/01/28 14:47:21;;;;;;;;;;;18.30;35.80;;;;;;5094503;28;19913;-51
2023/01/28 14:49:59;;;;;;;;;;;18.20;35.80;;;;;;5094498;28;19919;-50
2023/01/28 14:53:00;;;;;;;;;;;18.00;35.80;;;;;;5086144;28;19962;-51
2023/01/28 14:55:33;;;;;;;;;;;17.90;36.30;;;;;;4992580;28;19914;-51
2023/01/28 14:58:02;;;;;;;;;;;17.80;35.30;;;;;;5059119;28;20380;-50
2023/01/28 15:00:29;;;;;;;;;;;17.70;36.40;;;;;;5073972;28;19912;-51
2023/01/28 15:02:55;;;;;;;;;;;17.30;36.30;;;;;;5076562;28;19916;-50
2023/01/28 15:05:22;;;;;;;;;;;12.40;36.50;;;;;;5093819;28;20022;-52
2023/01/28 15:07:48;;;;;;;;;;;;;;;;;;5081564;28;19912;-50
2023/01/28 15:10:14;;;;;;;;;;;;;;;;;;5066111;28;19917;-51
2023/01/28 15:12:40;;;;;;;;;;;;;;;;;;5072511;28;20284;-50
2023/01/28 15:15:06;;;;;;;;;;;;;;;;;;5072268;28;19920;-50
2023/01/28 15:17:32;;;;;;;;;;;;;;;;;;5079545;28;20371;-53
2023/01/28 15:19:58;;;;;;;;;;;;;;;;;;5093659;28;19915;-55
2023/01/28 15:22:24;;;;;;;;;;;;;;;;;;5075705;28;19912;-56
2023/01/28 15:24:50;;;;;;;;;;;;;;;;;;5073655;28;19920;-53
2023/01/28 15:27:16;;;;;;;;;;;;;;;;;;5073535;28;19909;-52
2023/01/28 15:29:42;;;;;;;;;;;;;;;;;;5073246;28;19932;-52
2023/01/28 15:32:08;;;;;;;;;;;;;;;;;;5073376;28;20288;-51
2023/01/28 15:34:34;;;;;;;;;;;;;;;;;;5055322;28;19908;-51
2023/01/28 15:36:59;;;;;;;;;;;;;;;;;;5078901;28;19913;-50
2023/01/28 15:39:25;;;;;;;;;;;;;;;;;;5090943;28;19916;-50
2023/01/28 15:41:51;;;;;;;;;;;;;;;;;;5093549;28;19912;-51
2023/01/28 15:44:17;;;;;;;;;;;;;;;;;;5090788;28;20359;-51
2023/01/28 15:46:43;;;;;;;;;;;;;;;;;;5079410;28;19994;-50
2023/01/28 15:49:09;;;;;;;;;;;;;;;;;;5092630;28;19978;-50
2023/01/28 15:51:35;;;;;;;;;;;;;;;;;;5093334;28;19955;-53
2023/01/28 15:54:01;;;;;;;;;;;;;;;;;;5093583;28;19917;-50
2023/01/28 15:56:27;;;;;;;;;;;;;;;;;;5074952;28;19915;-51
2023/01/28 15:58:53;;;;;;;;;;;;;;;;;;5093151;28;19916;-51
2023/01/28 16:01:19;;;;;;;;;;;;;;;;;;5093158;28;19923;-50
2023/01/28 16:03:45;;;;;;;;;;;;;;;;;;5074815;28;20394;-50
2023/01/28 16:06:11;;;;;;;;;;;;;;;;;;5088530;28;19928;-52
2023/01/28 16:08:38;;;;;;;;;;;;;;;;;;5072307;28;19912;-52
2023/01/28 16:11:04;;;;;;;;;;;;;;;;;;5072731;28;19970;-50
2023/01/28 16:13:29;;;;;;;;;;;;;;;;;;5072740;28;19908;-50
2023/01/28 16:15:55;;;;;;;;;;;;;;;;;;5072037;28;19908;-50
2023/01/28 16:18:21;;;;;;;;;;;;;;;;;;5072107;28;19935;-50
2023/01/28 16:20:49;;;;;;;;;;;;;;;;;;5072027;28;19913;-50
2023/01/28 16:23:15;;;;;;;;;;;;;;;;;;5071985;28;19913;-50
2023/01/28 16:25:41;;;;;;;;;;;;;;;;;;5072214;28;19977;-52
2023/01/28 16:28:07;;;;;;;;;;;;;;;;;;5054458;28;19909;-54
2023/01/28 16:30:33;;;;;;;;;;;;;;;;;;5064328;28;20043;-50
2023/01/28 16:32:59;;;;;;;;;;;;;;;;;;5089702;28;20007;-51
2023/01/28 16:35:25;;;;;;;;;;;;;;;;;;5081980;28;19908;-50
2023/01/28 16:37:51;;;;;;;;;;;;;;;;;;5092521;28;19912;-50
2023/01/28 16:40:17;;;;;;;;;;;;;;;;;;5092515;28;19985;-50
2023/01/28 16:42:47;;;;;;;;;;;;;;;;;;5092447;28;19951;-50
2023/01/28 16:45:13;;;;;;;;;;;;;;;;;;5092260;28;19919;-50
2023/01/28 16:47:39;;;;;;;;;;;;;;;;;;5092373;28;19912;-50
2023/01/28 16:50:05;;;;;;;;;;;;;;;;;;5092365;28;19912;-50
2023/01/28 16:52:31;;;;;;;;;;;;;;;;;;5074194;28;20368;-50
2023/01/28 16:54:56;;;;;;;;;;;;;;;;;;5074096;28;19908;-50
2023/01/28 16:57:22;;;;;;;;;;;;;;;;;;5079009;28;19919;-50
2023/01/28 16:59:48;;;;;;;;;;;;;;;;;;5071940;28;19909;-52
2023/01/28 17:02:14;;;;;;;;;;;;;;;;;;5071909;28;19954;-50
2023/01/28 17:04:40;;;;;;;;;;;;;;;;;;5071765;28;19943;-50